Svinoy — V7RM5 — position and weather

sailwx.info

Track history (hours):
 
Tides and Currents Weather Stations Pressure Air Temp Water Temp Dewpoint Dewpoint Depression Visibility Wind Speed Wind Dir Waves Ship Positions

Svinoy

Last reported at 2015-May-15 16:15 UTC. Time now 2015-May-25 21:38 UTC.
Position S 29°22' E 032°04'.
Warning: this ship's position is 10 days out of date.

Length 190 m; draft 10.1 m.

Type: Cargo ship. MMSI: 538003541.

Date/timePositionNaut miles runAvg speedWind from/ knotsBaromVisibWave heightAir tempDewpointWater temp
2015-May-15 16:15S 29°22' E 032°04'15 8.0
2015-May-15 14:21S 29°30' E 031°49'40 6.5
2015-May-15 08:09S 29°53' E 031°11'1 1.2
2015-May-15 07:33S 29°54' E 031°12'4 4.2
2015-May-15 06:32S 29°58' E 031°11'5 4.9
2015-May-15 05:33S 30°02' E 031°09'10 9.9
2015-May-15 04:33S 30°11' E 031°04'1111.1
2015-May-15 03:32S 30°21' E 030°58'1 0.9
2015-May-15 02:33S 30°21' E 030°58'31210.0
2015-May-13 19:15S 33°58' E 026°34'2311.7
2015-May-13 17:17S 34°07' E 026°08'  
Track history (hours):
 
Tides and Currents Weather Stations Pressure Air Temp Water Temp Dewpoint Dewpoint Depression Visibility Wind Speed Wind Dir Waves Ship Positions

Svinoy

Last reported at 2015-May-15 16:15 UTC. Time now 2015-May-25 21:38 UTC.
Position S 29°22' E 032°04'.
Warning: this ship's position is 10 days out of date.

Length 190 m; draft 10.1 m.

Type: Cargo ship. MMSI: 538003541.

Date/timePositionNaut miles runAvg speedWind from/ knotsBaromVisibWave heightAir tempDewpointWater temp
2015-May-15 16:15S 29°22' E 032°04'15 8.0
2015-May-15 14:21S 29°30' E 031°49'40 6.5
2015-May-15 08:09S 29°53' E 031°11'1 1.2
2015-May-15 07:33S 29°54' E 031°12'4 4.2
2015-May-15 06:32S 29°58' E 031°11'5 4.9
2015-May-15 05:33S 30°02' E 031°09'10 9.9
2015-May-15 04:33S 30°11' E 031°04'1111.1
2015-May-15 03:32S 30°21' E 030°58'1 0.9
2015-May-15 02:33S 30°21' E 030°58'31210.0
2015-May-13 19:15S 33°58' E 026°34'2311.7
2015-May-13 17:17S 34°07' E 026°08'  

Dump ship's entire track history